createdAt,value
2019-04-22T00:00:36.535Z,30.10
2019-04-22T00:03:08.970Z,30.43
2019-04-22T00:05:56.288Z,31.73
2019-04-22T00:08:43.261Z,30.53
2019-04-22T00:11:23.093Z,30.77
2019-04-22T00:13:52.052Z,31.60
2019-04-22T00:16:19.259Z,33.27
2019-04-22T00:21:26.229Z,32.00
2019-04-22T00:23:59.742Z,33.07
2019-04-22T00:26:34.126Z,32.40
2019-04-22T00:29:21.274Z,31.90
2019-04-22T00:31:41.686Z,33.27
2019-04-22T00:34:21.302Z,33.27
2019-04-22T00:36:48.353Z,32.40
2019-04-22T00:39:33.864Z,32.33
2019-04-22T00:41:57.186Z,33.83
2019-04-22T00:44:31.839Z,35.53
2019-04-22T00:47:01.801Z,34.57
2019-04-22T00:50:06.647Z,35.13
2019-04-22T00:52:09.581Z,35.17
2019-04-22T00:54:41.689Z,34.40
2019-04-22T00:57:08.737Z,33.50
2019-04-22T00:59:40.401Z,33.73
2019-04-22T01:02:13.109Z,33.97
2019-04-22T01:04:47.514Z,35.77
2019-04-22T01:07:17.740Z,35.93
2019-04-22T01:09:51.986Z,34.57
2019-04-22T01:12:20.308Z,34.83
2019-04-22T01:14:49.523Z,35.47
2019-04-22T01:17:25.817Z,34.90
2019-04-22T01:20:29.346Z,33.90
2019-04-22T01:22:38.336Z,34.07
2019-04-22T01:25:03.671Z,34.73
2019-04-22T01:27:31.111Z,35.13
2019-04-22T01:30:00.991Z,35.07
2019-04-22T01:32:27.671Z,33.70
2019-04-22T01:35:09.809Z,35.00
2019-04-22T01:38:31.450Z,35.43
2019-04-22T01:41:07.116Z,34.00
2019-04-22T01:43:54.385Z,33.80
2019-04-22T01:46:19.731Z,34.07
2019-04-22T01:48:57.770Z,36.23
2019-04-22T01:51:35.618Z,33.87
2019-04-22T01:54:10.430Z,35.27
2019-04-22T01:56:38.983Z,33.97
2019-04-22T01:58:54.873Z,34.83
2019-04-22T02:01:39.704Z,33.37
2019-04-22T02:04:08.871Z,35.40
2019-04-22T02:06:46.289Z,32.83
2019-04-22T02:09:20.398Z,33.63
2019-04-22T02:11:48.733Z,32.93
2019-04-22T02:14:19.852Z,32.77
2019-04-22T02:16:52.700Z,35.40
2019-04-22T02:21:56.597Z,32.83
2019-04-22T02:24:34.633Z,32.87
2019-04-22T02:27:08.900Z,31.97
2019-04-22T02:29:34.876Z,30.90
2019-04-22T02:34:50.433Z,32.60
2019-04-22T02:37:21.243Z,33.20
2019-04-22T02:42:16.638Z,29.17
2019-04-22T02:50:02.334Z,29.27
2019-04-22T02:52:35.395Z,31.20
2019-04-22T02:55:16.575Z,29.87
2019-04-22T02:57:39.691Z,30.53
2019-04-22T03:00:21.889Z,29.83
2019-04-22T03:03:03.779Z,29.60
2019-04-22T03:05:28.007Z,30.67
2019-04-22T03:07:58.559Z,30.07
2019-04-22T03:10:35.506Z,30.13
2019-04-22T03:13:00.572Z,32.23
2019-04-22T03:15:42.585Z,29.17
2019-04-22T03:18:27.179Z,29.10
2019-04-22T03:20:50.057Z,30.30
2019-04-22T03:26:11.962Z,29.23
2019-04-22T03:28:43.890Z,28.37
2019-04-22T03:47:17.610Z,28.60
2019-04-22T03:57:48.825Z,28.63
2019-04-22T04:00:02.593Z,28.63
2019-04-22T04:02:38.916Z,28.87
2019-04-22T04:05:07.232Z,27.37
2019-04-22T04:07:48.463Z,28.13
2019-04-22T04:10:19.271Z,27.03
2019-04-22T04:12:54.000Z,26.90
2019-04-22T04:18:06.846Z,28.67
2019-04-22T04:23:30.940Z,26.63
2019-04-22T04:28:55.316Z,26.80
2019-04-22T04:31:06.530Z,27.47
2019-04-22T04:33:38.876Z,28.23
2019-04-22T04:36:14.639Z,26.43
2019-04-22T04:38:45.462Z,27.60
2019-04-22T04:41:26.762Z,27.10
2019-04-22T04:43:52.576Z,26.87
2019-04-22T04:46:33.750Z,26.73
2019-04-22T04:49:00.348Z,27.77
2019-04-22T04:54:04.304Z,26.77
2019-04-22T04:56:35.874Z,26.80
2019-04-22T04:59:16.795Z,28.17
2019-04-22T05:06:51.564Z,27.80
2019-04-22T05:12:16.735Z,29.20
2019-04-22T05:17:18.463Z,28.80
2019-04-22T05:19:26.385Z,28.00
2019-04-22T05:21:59.502Z,28.23
2019-04-22T05:24:35.033Z,28.27
2019-04-22T05:27:05.253Z,28.43
2019-04-22T05:29:54.079Z,28.00
2019-04-22T05:34:45.712Z,27.33
2019-04-22T05:37:14.552Z,28.10
2019-04-22T05:39:43.619Z,28.87
2019-04-22T05:42:17.984Z,27.33
2019-04-22T05:45:10.223Z,28.03
2019-04-22T05:47:26.184Z,28.73
2019-04-22T05:50:06.439Z,25.97
2019-04-22T05:52:31.655Z,27.50
2019-04-22T05:55:09.720Z,26.53
2019-04-22T05:57:38.291Z,26.80
2019-04-22T06:00:13.815Z,27.50
2019-04-22T06:05:16.886Z,24.83
2019-04-22T06:07:46.880Z,24.47
2019-04-22T06:10:35.794Z,24.63
2019-04-22T06:12:58.192Z,23.17
2019-04-22T06:15:42.979Z,22.57
2019-04-22T06:20:50.085Z,21.73
2019-04-22T06:23:19.011Z,20.77
2019-04-22T06:25:57.844Z,20.20
2019-04-22T06:28:32.079Z,18.50
2019-04-22T06:30:57.400Z,19.57
2019-04-22T06:33:38.600Z,19.30
2019-04-22T06:41:09.306Z,17.50
2019-04-22T06:43:35.579Z,16.03
2019-04-22T06:46:08.453Z,17.00
2019-04-22T06:49:09.638Z,15.77
2019-04-22T06:51:46.455Z,14.93
2019-04-22T06:54:28.409Z,15.93
2019-04-22T06:57:00.761Z,16.07
2019-04-22T06:59:37.645Z,15.90
2019-04-22T07:02:16.570Z,15.57
2019-04-22T07:04:52.008Z,15.17
2019-04-22T07:07:21.624Z,13.50
2019-04-22T07:09:58.489Z,11.93
2019-04-22T07:12:24.800Z,12.13
2019-04-22T07:14:59.985Z,11.70
2019-04-22T07:19:55.521Z,10.43
2019-04-22T07:22:33.901Z,9.70
2019-04-22T07:25:09.920Z,9.27
2019-04-22T07:27:40.678Z,9.60
2019-04-22T07:33:15.131Z,9.43
2019-04-22T07:35:33.067Z,9.00
2019-04-22T07:38:10.882Z,9.60
2019-04-22T07:40:45.733Z,8.30
2019-04-22T07:43:19.699Z,9.37
2019-04-22T07:45:49.375Z,8.87
2019-04-22T07:48:26.502Z,8.90
2019-04-22T07:53:35.822Z,8.70
2019-04-22T07:56:11.879Z,7.90
2019-04-22T07:58:43.298Z,8.07
2019-04-22T08:01:24.602Z,7.80
2019-04-22T08:04:05.483Z,8.23
2019-04-22T08:06:29.561Z,7.87
2019-04-22T08:09:07.935Z,7.90
2019-04-22T08:11:43.706Z,7.90
2019-04-22T08:14:07.494Z,7.40
2019-04-22T08:16:51.368Z,7.27
2019-04-22T08:19:20.541Z,7.50
2019-04-22T08:21:53.252Z,7.17
2019-04-22T08:24:29.331Z,6.77
2019-04-22T08:27:07.282Z,6.70
2019-04-22T08:29:50.547Z,6.93
2019-04-22T08:32:22.000Z,7.60
2019-04-22T08:34:55.639Z,6.73
2019-04-22T08:40:07.788Z,6.23
2019-04-22T08:42:43.435Z,6.07
2019-04-22T08:45:28.050Z,5.87
2019-04-22T08:48:01.371Z,5.83
2019-04-22T08:50:21.892Z,5.87
2019-04-22T08:52:57.674Z,5.90
2019-04-22T08:55:32.621Z,5.80
2019-04-22T09:00:43.600Z,5.90
2019-04-22T09:03:20.835Z,5.40
2019-04-22T09:08:32.241Z,5.23
2019-04-22T09:10:57.423Z,5.70
2019-04-22T09:13:35.502Z,5.10
2019-04-22T09:16:16.581Z,5.37
2019-04-22T09:21:30.570Z,5.10
2019-04-22T09:24:00.118Z,5.37
2019-04-22T15:38:51.341Z,3.20
2019-04-22T15:41:22.948Z,3.30
2019-04-22T15:43:54.160Z,3.20
2019-04-22T15:46:32.096Z,2.90
2019-04-22T15:49:07.836Z,2.90
2019-04-22T15:51:40.856Z,2.50
2019-04-22T15:54:13.869Z,2.47
2019-04-22T15:56:46.704Z,2.90
2019-04-22T15:59:38.969Z,2.27
2019-04-22T16:01:58.133Z,2.43
2019-04-22T16:04:28.513Z,2.53
2019-04-22T16:06:59.059Z,2.87
2019-04-22T16:09:47.864Z,2.00
2019-04-22T16:12:28.798Z,2.40
2019-04-22T16:14:56.969Z,2.50
2019-04-22T16:17:50.767Z,2.83
2019-04-22T16:20:30.077Z,2.30
2019-04-22T16:23:25.699Z,2.13
2019-04-22T16:26:07.325Z,2.77
2019-04-22T16:28:39.749Z,2.80
2019-04-22T16:31:13.478Z,2.80
2019-04-22T16:34:02.558Z,3.40
2019-04-22T16:36:34.469Z,2.80
2019-04-22T16:39:15.245Z,2.50
2019-04-22T16:41:50.813Z,2.63
2019-04-22T16:44:26.826Z,2.60
2019-04-22T16:47:01.459Z,2.30
2019-04-22T16:49:39.275Z,2.33
2019-04-22T16:52:18.304Z,2.20
2019-04-22T16:54:50.614Z,2.30
2019-04-22T16:57:21.911Z,2.03
2019-04-22T17:00:00.455Z,2.47
2019-04-22T17:02:49.795Z,2.10
2019-04-22T17:05:38.633Z,2.10
2019-04-22T17:08:14.187Z,2.00
2019-04-22T17:11:04.020Z,2.37
2019-04-22T17:13:50.186Z,2.33
2019-04-22T17:16:26.255Z,2.40
2019-04-22T17:19:06.032Z,2.63
2019-04-22T17:21:41.395Z,2.40
2019-04-22T17:24:14.393Z,2.80
2019-04-22T17:26:46.451Z,2.80
2019-04-22T17:29:24.536Z,2.57
2019-04-22T17:32:00.410Z,3.80
2019-04-22T17:34:31.802Z,4.17
2019-04-22T17:37:12.735Z,3.67
2019-04-22T17:40:17.960Z,2.70
2019-04-22T17:42:58.931Z,2.77
2019-04-22T17:45:58.463Z,2.40
2019-04-22T17:48:48.916Z,2.50
2019-04-22T17:51:34.487Z,2.23
2019-04-22T17:54:12.883Z,2.50
2019-04-22T17:56:48.597Z,2.60
2019-04-22T17:59:26.883Z,2.40
2019-04-22T18:01:56.688Z,2.47
2019-04-22T18:04:18.062Z,2.30
2019-04-22T18:07:18.438Z,2.60
2019-04-22T18:13:07.411Z,2.00
2019-04-22T18:15:43.622Z,2.40
2019-04-22T18:18:23.366Z,2.57
2019-04-22T18:20:56.414Z,2.27
2019-04-22T18:23:24.468Z,2.20
2019-04-22T18:26:26.226Z,2.00
2019-04-22T18:29:07.192Z,2.00
2019-04-22T18:31:40.907Z,1.93
2019-04-22T18:34:26.664Z,1.80
2019-04-22T18:37:09.374Z,1.90
2019-04-22T18:39:55.719Z,2.00
2019-04-22T18:42:24.162Z,1.80
2019-04-22T18:45:20.387Z,1.90
2019-04-22T18:47:32.300Z,2.20
2019-04-22T18:50:10.571Z,2.30
2019-04-22T18:53:10.990Z,2.10
2019-04-22T18:55:51.640Z,2.20
2019-04-22T18:58:34.422Z,2.00
2019-04-22T19:01:19.733Z,2.03
2019-04-22T19:04:14.117Z,2.00
2019-04-22T19:07:15.464Z,1.70
2019-04-22T19:10:21.150Z,1.97
2019-04-22T19:13:19.628Z,2.17
2019-04-22T19:15:36.810Z,1.70
2019-04-22T19:18:42.881Z,1.97
2019-04-22T19:21:44.512Z,1.73
2019-04-22T19:24:28.940Z,2.13
2019-04-22T19:27:02.981Z,1.70
2019-04-22T19:29:44.763Z,1.60
2019-04-22T19:32:27.835Z,1.90
2019-04-22T19:35:17.437Z,1.73
2019-04-22T19:37:53.865Z,1.90
2019-04-22T19:40:54.997Z,1.90
2019-04-22T19:43:33.133Z,1.67
2019-04-22T19:46:07.450Z,1.63
2019-04-22T19:48:50.032Z,1.80
2019-04-22T19:51:27.957Z,2.03
2019-04-22T19:53:56.081Z,1.80
2019-04-22T19:56:33.704Z,2.33
2019-04-22T19:59:12.195Z,1.80
2019-04-22T20:02:04.380Z,1.50
2019-04-22T20:05:06.545Z,1.63
2019-04-22T20:07:49.906Z,1.40
2019-04-22T20:10:29.607Z,1.40
2019-04-22T20:13:10.133Z,1.50
2019-04-22T20:15:34.554Z,1.57
2019-04-22T20:18:34.413Z,1.63
2019-04-22T20:20:58.474Z,1.33
2019-04-22T20:23:22.917Z,1.50
2019-04-22T20:25:51.043Z,1.60
2019-04-22T20:28:43.307Z,1.40
2019-04-22T20:31:18.576Z,1.20
2019-04-22T20:33:56.334Z,1.30
2019-04-22T20:36:44.992Z,1.23
2019-04-22T20:38:59.307Z,1.33
2019-04-22T20:42:17.797Z,1.20
2019-04-22T20:44:47.327Z,1.40
2019-04-22T20:47:16.471Z,1.47
2019-04-22T20:49:56.150Z,1.40
2019-04-22T20:52:36.355Z,1.47
2019-04-22T20:54:55.399Z,1.30
2019-04-22T20:57:34.920Z,1.20
2019-04-22T21:00:03.732Z,1.40
2019-04-22T21:02:40.188Z,1.50
2019-04-22T21:05:19.403Z,1.37
2019-04-22T21:08:08.041Z,1.47
2019-04-22T21:10:31.204Z,1.20
2019-04-22T21:13:05.516Z,1.40
2019-04-22T21:15:55.394Z,1.70
2019-04-22T21:18:13.469Z,1.57
2019-04-22T21:20:56.223Z,1.47
2019-04-22T21:23:23.134Z,1.53
2019-04-22T21:26:02.314Z,1.73
2019-04-22T21:28:41.843Z,1.67
2019-04-22T21:31:14.466Z,1.83
2019-04-22T21:37:20.791Z,1.60
2019-04-22T21:39:40.634Z,1.83
2019-04-22T21:42:21.515Z,1.30
2019-04-22T21:44:53.604Z,1.40
2019-04-22T21:47:46.182Z,1.80
2019-04-22T21:50:41.587Z,1.70
2019-04-22T21:53:06.761Z,1.60
2019-04-22T21:55:50.610Z,1.90
2019-04-22T21:58:36.647Z,1.53
2019-04-22T22:01:28.225Z,2.10
2019-04-22T22:04:02.597Z,1.90
2019-04-22T22:06:21.886Z,1.87
2019-04-22T22:09:13.579Z,1.93
2019-04-22T22:11:41.775Z,1.90
2019-04-22T22:14:11.679Z,1.80
2019-04-22T22:16:38.403Z,2.40
2019-04-22T22:19:17.792Z,2.00
2019-04-22T22:22:15.174Z,2.20
2019-04-22T22:24:41.461Z,2.23
2019-04-22T22:27:10.995Z,1.80
2019-04-22T22:30:05.556Z,1.73
2019-04-22T22:32:25.995Z,2.00
2019-04-22T22:34:57.068Z,2.23
2019-04-22T22:37:15.898Z,2.40
2019-04-22T22:39:48.432Z,1.90
2019-04-22T22:42:19.066Z,2.17
2019-04-22T22:44:48.501Z,2.03
2019-04-22T22:47:38.309Z,2.00
2019-04-22T22:50:10.927Z,2.00
2019-04-22T22:55:11.983Z,1.93
2019-04-22T22:57:44.281Z,2.30
2019-04-22T23:00:28.225Z,1.80
2019-04-22T23:03:23.295Z,2.20
2019-04-22T23:05:37.612Z,1.93
2019-04-22T23:08:09.614Z,1.73
2019-04-22T23:10:44.379Z,2.13
2019-04-22T23:13:18.998Z,1.53
2019-04-22T23:15:41.882Z,1.67
2019-04-22T23:17:56.171Z,1.63
2019-04-22T23:20:32.462Z,1.70
2019-04-22T23:23:21.839Z,2.20
2019-04-22T23:25:54.765Z,1.67
2019-04-22T23:28:34.880Z,1.77
2019-04-22T23:31:14.326Z,1.53
2019-04-22T23:34:15.768Z,1.90
2019-04-22T23:37:06.877Z,1.90
2019-04-22T23:39:52.214Z,1.77
2019-04-22T23:42:18.949Z,1.60
2019-04-22T23:44:41.895Z,1.60
2019-04-22T23:47:24.644Z,1.80
2019-04-22T23:50:01.066Z,1.50
2019-04-22T23:53:00.512Z,1.93
2019-04-22T23:55:33.249Z,1.90
2019-04-22T23:58:11.918Z,1.97
